Amargosa Valley, NV

7:51 AM PDT on August 22, 2014 (GMT -0700)
MesoWest Yucca Mountain NV US ARL SORD | Change Station
CLOSE
Current Station
Personal Weather Station
Location: Beatty, NV
Elevation: 4834 ft
Nearby Weather Stations

Elev 4834 ft 36.85 °N, 116.47 °W | Updated 36 minutes ago

Clear
Clear
66 °F
Feels Like 66 °F
N
7
Wind Variable Wind from East
Gusts 8.0 mph

Today
High -- | Low -- °F
--% Chance of Precip.
Yesterday
High -- | Low -- °F
Precip. -- in
6:08 AM 7:27 PM
Waning Crescent, 8% visible
Pressure 29.89 in
Visibility 10.0 miles
Clouds Clear
Dew Point 47 °F
Humidity 50%
Rainfall 0.00 in
Snow Depth Not available.
UV 0 out of 12
Pollen 6.00 out of 12
Air Quality Not available.
Flu Activity Not available.
METAR KDRA 221352Z AUTO 11005KT 10SM CLR 19/09 A3002 RMK AO2 SLP122 T01890089

More Conditions Fewer Conditions

Pressure 29.89 in
Visibility 10.0 miles
Clouds Clear
Dew Point 47 °F
Humidity 50%
Rainfall 0.00 in
Snow Depth Not available.
UV 0 out of 12
Pollen 6.00 out of 12
Air Quality Not available.
Flu Activity Not available.
METAR KDRA 221352Z AUTO 11005KT 10SM CLR 19/09 A3002 RMK AO2 SLP122 T01890089

More Conditions Fewer Conditions

10-Day Weather Forecast

Almanac

Astronomy

Aug. 22, 2014 Rise Set
Actual Time 6:08 AM PDT 7:27 PM PDT
Civil Twilight 5:40 AM PDT 7:55 PM PDT
Nautical Twilight 5:08 AM PDT 8:27 PM PDT
Astronomical Twilight 4:34 AM PDT 9:01 PM PDT
Moon 3:36 AM PDT 5:38 PM PDT
Length of Visible Light 14h 14m
Length of Day
13h 19m
Tomorrow will be 2m 11s shorter.
Waning Crescent, 8% of the Moon is Illuminated
Today
Waning Crescent
Aug 25
New
Sep 2
First Quarter
Sep 8
Full
Sep 15
Last Quarter

Today's Extremes

State Highs State Lows

Community

WunderPhotos

Upload Photos

1,746,181 photos uploaded!

WunderBlogs® & News

Nearby

Snow Depth

Station Depth Elevation
Big Creek Summit 1 in 8700 ft
Diamond Peak 1 in 8000 ft
Corral Canyon 0 in 8500 ft
Lewis Peak 0 in 7400 ft
Green Mountain 0 in 8000 ft

Earthquake Activity

City Distance Mag. Time & Date
No recent earthquake activity has been reported nearby.
Minimum magnitude displayed is 2.5.

Coastal Water Temperatures

Place Temperature
No Stations Reporting

Nearby Weather Stations